Flight Track Log - Related Links

Times and Time Zones

All times are in EDT time to prevent confusion due to time zone crossing. See the EJA695 flight status page for this flight to view local times or setup timezone preferences in your user account.

Time Position Orientation Groundspeed Altitude Reporting Facility
EDT Latitude Longitude Course Direction KTS MPH feet Rate Location/Type
Fri 12:24:22 PM 40.1414 -74.1867 140° Southeast 240 276 3,800  Level New York Center
Fri 12:25:22 PM 40.0867 -74.1269 140° Southeast 239 275 4,900 1,279 Climbing New York Center
Fri 12:26:24 PM 40.0542 -74.0278 113° Southeast 259 298 6,400 1,900 Climbing New York Center
Fri 12:27:22 PM 40.0294 -73.9372 110° East 283 326 8,700 1,311 Climbing New York Center
Fri 12:28:23 PM 39.9947 -73.8381 115° Southeast 295 339 9,000 100 Climbing New York Center
Fri 12:29:22 PM 39.9644 -73.7175 108° East 302 348 8,900 -50 Descending New York Center
Fri 12:30:22 PM 39.9878 -73.6128 74° East 288 331 8,900  Level New York Center
Fri 12:33:04 PM 40.1375 -73.4008 47° Northeast 303 349 8,900  Level Boston Center
Fri 12:34:04 PM 40.2089 -73.3014 47° Northeast 309 356 8,900  Level Boston Center
Fri 12:35:04 PM 40.2700 -73.2206 45° Northeast 309 356 8,900  Level Boston Center
Fri 12:36:04 PM 40.3311 -73.1342 47° Northeast 314 361 8,900  Level Boston Center
Fri 12:37:04 PM 40.3897 -73.0531 46° Northeast 314 361 8,900 -269 Level Boston Center
Fri 12:38:40 PM 40.4833 -72.9167 48° Northeast 317 365 8,200 -640 Descending New York TRACON
Fri 12:39:34 PM 40.5500 -72.8333 44° Northeast 313 360 7,300 -737 Descending New York TRACON
Fri 12:40:34 PM 40.6000 -72.7667 45° Northeast 297 342 6,800 -750 Descending New York TRACON
Fri 12:41:34 PM 40.6500 -72.6833 52° Northeast 283 326 5,800 -900 Descending New York TRACON
Fri 12:42:34 PM 40.7167 -72.6167 37° Northeast 280 322 5,000 -800 Descending New York TRACON
Fri 12:43:34 PM 40.7667 -72.5333 52° Northeast 279 321 4,200 -900 Descending New York TRACON
Fri 12:44:34 PM 40.8000 -72.4500 62° Northeast 279 321 3,200 -600 Descending New York TRACON
Fri 12:45:34 PM 40.8167 -72.3500 78° East 272 313 3,000 -300 Descending New York TRACON
Fri 12:46:34 PM 40.8667 -72.2667 52° Northeast 268 308 2,600 -550 Descending New York TRACON
Fri 12:47:34 PM 40.9000 -72.2000 57° Northeast 250 288 1,900 -619 Descending New York TRACON
Fri 12:48:40 PM 40.9667 -72.2000 360° North 232 267 1,300 -545 Descending New York TRACON

Login

Don't have an account? Register now (free) for customized features, flight alerts, and more!